sensor_id;sensor_type;location;lat;lon;timestamp;temperature;humidity
10453;DHT22;5274;51.992;8.518;2022-09-09T00:03:47;14.30;99.90
10453;DHT22;5274;51.992;8.518;2022-09-09T00:06:24;14.30;99.90
10453;DHT22;5274;51.992;8.518;2022-09-09T00:09:17;14.40;99.90
10453;DHT22;5274;51.992;8.518;2022-09-09T00:15:22;14.40;99.90
10453;DHT22;5274;51.992;8.518;2022-09-09T00:17:47;14.40;99.90
10453;DHT22;5274;51.992;8.518;2022-09-09T00:20:24;14.40;99.90
10453;DHT22;5274;51.992;8.518;2022-09-09T00:23:00;14.50;99.90
10453;DHT22;5274;51.992;8.518;2022-09-09T00:28:22;14.60;99.90
10453;DHT22;5274;51.992;8.518;2022-09-09T00:30:48;14.70;99.90
10453;DHT22;5274;51.992;8.518;2022-09-09T00:33:24;14.60;99.90
10453;DHT22;5274;51.992;8.518;2022-09-09T00:35:54;14.60;99.90
10453;DHT22;5274;51.992;8.518;2022-09-09T00:38:34;14.50;99.90
10453;DHT22;5274;51.992;8.518;2022-09-09T00:43:40;14.40;99.90
10453;DHT22;5274;51.992;8.518;2022-09-09T00:55:45;14.20;99.90
10453;DHT22;5274;51.992;8.518;2022-09-09T00:58:13;14.20;99.90
10453;DHT22;5274;51.992;8.518;2022-09-09T01:05:55;14.20;99.90
10453;DHT22;5274;51.992;8.518;2022-09-09T01:08:44;14.20;99.90
10453;DHT22;5274;51.992;8.518;2022-09-09T01:11:27;14.20;99.90
10453;DHT22;5274;51.992;8.518;2022-09-09T01:14:05;14.30;99.90
10453;DHT22;5274;51.992;8.518;2022-09-09T01:16:35;14.20;99.90
10453;DHT22;5274;51.992;8.518;2022-09-09T01:19:02;14.20;99.90
10453;DHT22;5274;51.992;8.518;2022-09-09T01:21:56;14.10;99.90
10453;DHT22;5274;51.992;8.518;2022-09-09T01:24:36;14.10;99.90
10453;DHT22;5274;51.992;8.518;2022-09-09T01:27:06;14.10;99.90
10453;DHT22;5274;51.992;8.518;2022-09-09T01:29:32;14.10;99.90
10453;DHT22;5274;51.992;8.518;2022-09-09T01:32:00;14.10;99.90
10453;DHT22;5274;51.992;8.518;2022-09-09T01:34:30;14.10;99.90
10453;DHT22;5274;51.992;8.518;2022-09-09T01:37:01;14.10;99.90
10453;DHT22;5274;51.992;8.518;2022-09-09T01:39:27;14.10;99.90
10453;DHT22;5274;51.992;8.518;2022-09-09T01:41:53;14.10;99.90
10453;DHT22;5274;51.992;8.518;2022-09-09T01:44:20;14.10;99.90
10453;DHT22;5274;51.992;8.518;2022-09-09T01:46:47;14.10;99.90
10453;DHT22;5274;51.992;8.518;2022-09-09T01:49:12;14.10;99.90
10453;DHT22;5274;51.992;8.518;2022-09-09T01:51:39;14.10;99.90
10453;DHT22;5274;51.992;8.518;2022-09-09T01:54:06;14.10;99.90
10453;DHT22;5274;51.992;8.518;2022-09-09T01:56:39;14.10;99.90
10453;DHT22;5274;51.992;8.518;2022-09-09T02:06:45;13.90;99.90
10453;DHT22;5274;51.992;8.518;2022-09-09T02:09:13;14.00;99.90
10453;DHT22;5274;51.992;8.518;2022-09-09T02:11:41;14.00;99.90
10453;DHT22;5274;51.992;8.518;2022-09-09T02:14:12;13.90;99.90
10453;DHT22;5274;51.992;8.518;2022-09-09T02:16:44;13.90;99.90
10453;DHT22;5274;51.992;8.518;2022-09-09T02:19:23;13.90;99.90
10453;DHT22;5274;51.992;8.518;2022-09-09T02:21:53;13.90;99.90
10453;DHT22;5274;51.992;8.518;2022-09-09T02:24:19;13.90;99.90
10453;DHT22;5274;51.992;8.518;2022-09-09T02:26:46;13.80;99.90
10453;DHT22;5274;51.992;8.518;2022-09-09T02:29:19;13.80;99.90
10453;DHT22;5274;51.992;8.518;2022-09-09T02:31:47;13.90;99.90
10453;DHT22;5274;51.992;8.518;2022-09-09T02:34:14;13.90;99.90
10453;DHT22;5274;51.992;8.518;2022-09-09T02:36:42;13.90;99.90
10453;DHT22;5274;51.992;8.518;2022-09-09T02:39:11;13.90;99.90
10453;DHT22;5274;51.992;8.518;2022-09-09T02:41:40;13.90;99.90
10453;DHT22;5274;51.992;8.518;2022-09-09T02:44:15;13.90;99.90
10453;DHT22;5274;51.992;8.518;2022-09-09T02:55:21;14.00;99.90
10453;DHT22;5274;51.992;8.518;2022-09-09T02:57:50;14.10;99.90
10453;DHT22;5274;51.992;8.518;2022-09-09T03:00:23;14.10;99.90
10453;DHT22;5274;51.992;8.518;2022-09-09T03:02:49;14.20;99.90
10453;DHT22;5274;51.992;8.518;2022-09-09T03:05:15;14.30;99.90
10453;DHT22;5274;51.992;8.518;2022-09-09T03:07:41;14.30;99.90
10453;DHT22;5274;51.992;8.518;2022-09-09T03:10:07;14.30;99.90
10453;DHT22;5274;51.992;8.518;2022-09-09T03:12:33;14.30;99.90
10453;DHT22;5274;51.992;8.518;2022-09-09T03:14:59;14.30;99.90
10453;DHT22;5274;51.992;8.518;2022-09-09T03:17:24;14.30;99.90
10453;DHT22;5274;51.992;8.518;2022-09-09T03:19:50;14.30;99.90
10453;DHT22;5274;51.992;8.518;2022-09-09T03:22:19;14.30;99.90
10453;DHT22;5274;51.992;8.518;2022-09-09T03:24:46;14.30;99.90
10453;DHT22;5274;51.992;8.518;2022-09-09T03:27:12;14.40;99.90
10453;DHT22;5274;51.992;8.518;2022-09-09T03:29:39;14.30;99.90
10453;DHT22;5274;51.992;8.518;2022-09-09T03:32:05;14.30;99.90
10453;DHT22;5274;51.992;8.518;2022-09-09T03:34:31;14.30;99.90
10453;DHT22;5274;51.992;8.518;2022-09-09T03:36:56;14.40;99.90
10453;DHT22;5274;51.992;8.518;2022-09-09T03:39:22;14.40;99.90
10453;DHT22;5274;51.992;8.518;2022-09-09T03:41:48;14.40;99.90
10453;DHT22;5274;51.992;8.518;2022-09-09T03:44:14;14.40;99.90
10453;DHT22;5274;51.992;8.518;2022-09-09T03:46:39;14.40;99.90
10453;DHT22;5274;51.992;8.518;2022-09-09T03:49:05;14.40;99.90
10453;DHT22;5274;51.992;8.518;2022-09-09T03:51:30;14.40;99.90
10453;DHT22;5274;51.992;8.518;2022-09-09T03:53:56;14.50;99.90
10453;DHT22;5274;51.992;8.518;2022-09-09T03:56:23;14.50;99.90
10453;DHT22;5274;51.992;8.518;2022-09-09T03:58:49;14.40;99.90
10453;DHT22;5274;51.992;8.518;2022-09-09T04:01:15;14.40;99.90
10453;DHT22;5274;51.992;8.518;2022-09-09T04:03:43;14.40;99.90
10453;DHT22;5274;51.992;8.518;2022-09-09T04:06:11;14.40;99.90
10453;DHT22;5274;51.992;8.518;2022-09-09T04:08:38;14.40;99.90
10453;DHT22;5274;51.992;8.518;2022-09-09T04:11:05;14.50;99.90
10453;DHT22;5274;51.992;8.518;2022-09-09T04:13:35;14.50;99.90
10453;DHT22;5274;51.992;8.518;2022-09-09T04:16:02;14.50;99.90
10453;DHT22;5274;51.992;8.518;2022-09-09T04:18:29;14.50;99.90
10453;DHT22;5274;51.992;8.518;2022-09-09T04:20:55;14.60;99.90
10453;DHT22;5274;51.992;8.518;2022-09-09T04:23:28;14.70;99.90
10453;DHT22;5274;51.992;8.518;2022-09-09T04:25:58;14.70;99.90
10453;DHT22;5274;51.992;8.518;2022-09-09T04:28:27;14.60;99.90
10453;DHT22;5274;51.992;8.518;2022-09-09T04:30:53;14.60;99.90
10453;DHT22;5274;51.992;8.518;2022-09-09T04:33:19;14.50;99.90
10453;DHT22;5274;51.992;8.518;2022-09-09T04:35:49;14.60;99.90
10453;DHT22;5274;51.992;8.518;2022-09-09T04:38:15;14.50;99.90
10453;DHT22;5274;51.992;8.518;2022-09-09T04:40:47;14.40;99.90
10453;DHT22;5274;51.992;8.518;2022-09-09T04:43:13;14.50;99.90
10453;DHT22;5274;51.992;8.518;2022-09-09T04:45:40;14.50;99.90
10453;DHT22;5274;51.992;8.518;2022-09-09T04:48:06;14.40;99.90
10453;DHT22;5274;51.992;8.518;2022-09-09T04:50:32;14.30;99.90
10453;DHT22;5274;51.992;8.518;2022-09-09T04:53:00;14.30;99.90
10453;DHT22;5274;51.992;8.518;2022-09-09T04:55:26;14.30;99.90
10453;DHT22;5274;51.992;8.518;2022-09-09T04:57:52;14.30;99.90
10453;DHT22;5274;51.992;8.518;2022-09-09T05:00:17;14.20;99.90
10453;DHT22;5274;51.992;8.518;2022-09-09T05:02:44;14.20;99.90
10453;DHT22;5274;51.992;8.518;2022-09-09T05:05:09;14.30;99.90
10453;DHT22;5274;51.992;8.518;2022-09-09T05:07:36;14.20;99.90
10453;DHT22;5274;51.992;8.518;2022-09-09T05:10:02;14.30;99.90
10453;DHT22;5274;51.992;8.518;2022-09-09T05:12:31;14.20;99.90
10453;DHT22;5274;51.992;8.518;2022-09-09T05:14:57;14.30;99.90
10453;DHT22;5274;51.992;8.518;2022-09-09T05:17:23;14.30;99.90
10453;DHT22;5274;51.992;8.518;2022-09-09T05:19:48;14.30;99.90
10453;DHT22;5274;51.992;8.518;2022-09-09T05:22:19;14.30;99.90
10453;DHT22;5274;51.992;8.518;2022-09-09T05:24:45;14.50;99.90
10453;DHT22;5274;51.992;8.518;2022-09-09T05:27:11;14.50;99.90
10453;DHT22;5274;51.992;8.518;2022-09-09T05:29:38;14.50;99.90
10453;DHT22;5274;51.992;8.518;2022-09-09T05:32:04;14.50;99.90
10453;DHT22;5274;51.992;8.518;2022-09-09T05:34:29;14.60;99.90
10453;DHT22;5274;51.992;8.518;2022-09-09T05:36:55;14.60;99.90
10453;DHT22;5274;51.992;8.518;2022-09-09T05:39:20;14.60;99.90
10453;DHT22;5274;51.992;8.518;2022-09-09T05:41:46;14.70;99.90
10453;DHT22;5274;51.992;8.518;2022-09-09T05:44:12;14.70;99.90
10453;DHT22;5274;51.992;8.518;2022-09-09T05:46:38;14.70;99.90
10453;DHT22;5274;51.992;8.518;2022-09-09T05:49:04;14.80;99.90
10453;DHT22;5274;51.992;8.518;2022-09-09T05:51:30;14.80;99.90
10453;DHT22;5274;51.992;8.518;2022-09-09T05:53:56;14.90;99.90
10453;DHT22;5274;51.992;8.518;2022-09-09T05:56:26;14.90;99.90
10453;DHT22;5274;51.992;8.518;2022-09-09T05:58:54;15.00;99.90
10453;DHT22;5274;51.992;8.518;2022-09-09T06:01:21;15.00;99.90
10453;DHT22;5274;51.992;8.518;2022-09-09T06:03:48;15.00;99.90
10453;DHT22;5274;51.992;8.518;2022-09-09T06:06:17;15.10;99.90
10453;DHT22;5274;51.992;8.518;2022-09-09T06:08:44;15.10;99.90
10453;DHT22;5274;51.992;8.518;2022-09-09T06:11:13;15.10;99.90
10453;DHT22;5274;51.992;8.518;2022-09-09T06:13:39;15.10;99.90
10453;DHT22;5274;51.992;8.518;2022-09-09T06:16:16;15.20;99.90
10453;DHT22;5274;51.992;8.518;2022-09-09T06:18:42;15.20;99.90
10453;DHT22;5274;51.992;8.518;2022-09-09T06:21:13;15.30;99.90
10453;DHT22;5274;51.992;8.518;2022-09-09T06:23:40;15.40;99.90
10453;DHT22;5274;51.992;8.518;2022-09-09T06:26:09;15.40;99.90
10453;DHT22;5274;51.992;8.518;2022-09-09T06:28:36;15.40;99.90
10453;DHT22;5274;51.992;8.518;2022-09-09T06:31:04;15.60;99.90
10453;DHT22;5274;51.992;8.518;2022-09-09T06:33:34;15.70;99.90
10453;DHT22;5274;51.992;8.518;2022-09-09T06:36:01;15.80;99.90
10453;DHT22;5274;51.992;8.518;2022-09-09T06:38:27;15.80;99.90
10453;DHT22;5274;51.992;8.518;2022-09-09T06:40:57;15.90;99.90
10453;DHT22;5274;51.992;8.518;2022-09-09T06:43:27;15.90;99.90
10453;DHT22;5274;51.992;8.518;2022-09-09T06:46:00;16.10;99.90
10453;DHT22;5274;51.992;8.518;2022-09-09T06:48:26;16.10;99.90
10453;DHT22;5274;51.992;8.518;2022-09-09T06:51:04;16.20;99.90
10453;DHT22;5274;51.992;8.518;2022-09-09T06:53:30;16.20;99.90
10453;DHT22;5274;51.992;8.518;2022-09-09T06:55:55;16.30;99.90
10453;DHT22;5274;51.992;8.518;2022-09-09T06:58:21;16.30;99.90
10453;DHT22;5274;51.992;8.518;2022-09-09T07:00:49;16.30;99.90
10453;DHT22;5274;51.992;8.518;2022-09-09T07:03:15;16.30;99.90
10453;DHT22;5274;51.992;8.518;2022-09-09T07:05:40;16.30;99.90
10453;DHT22;5274;51.992;8.518;2022-09-09T07:08:05;16.30;99.90
10453;DHT22;5274;51.992;8.518;2022-09-09T07:10:31;16.40;99.90
10453;DHT22;5274;51.992;8.518;2022-09-09T07:12:57;16.50;99.90
10453;DHT22;5274;51.992;8.518;2022-09-09T07:15:23;16.50;99.90
10453;DHT22;5274;51.992;8.518;2022-09-09T07:17:48;16.60;99.90
10453;DHT22;5274;51.992;8.518;2022-09-09T07:20:14;16.70;99.90
10453;DHT22;5274;51.992;8.518;2022-09-09T07:22:41;16.70;99.90
10453;DHT22;5274;51.992;8.518;2022-09-09T07:25:07;16.80;99.90
10453;DHT22;5274;51.992;8.518;2022-09-09T07:27:33;16.80;99.90
10453;DHT22;5274;51.992;8.518;2022-09-09T07:29:58;16.90;99.90
10453;DHT22;5274;51.992;8.518;2022-09-09T07:32:24;16.90;99.90
10453;DHT22;5274;51.992;8.518;2022-09-09T07:34:51;16.90;99.90
10453;DHT22;5274;51.992;8.518;2022-09-09T07:37:16;17.00;99.90
10453;DHT22;5274;51.992;8.518;2022-09-09T07:39:43;17.10;99.90
10453;DHT22;5274;51.992;8.518;2022-09-09T07:42:09;17.20;99.90
10453;DHT22;5274;51.992;8.518;2022-09-09T07:44:36;17.20;99.90
10453;DHT22;5274;51.992;8.518;2022-09-09T07:47:05;17.20;99.90
10453;DHT22;5274;51.992;8.518;2022-09-09T07:49:31;17.30;99.90
10453;DHT22;5274;51.992;8.518;2022-09-09T07:51:58;17.40;99.90
10453;DHT22;5274;51.992;8.518;2022-09-09T07:54:24;17.50;99.90
10453;DHT22;5274;51.992;8.518;2022-09-09T07:56:51;17.50;97.40
10453;DHT22;5274;51.992;8.518;2022-09-09T07:59:17;17.70;75.80
10453;DHT22;5274;51.992;8.518;2022-09-09T08:01:47;17.80;77.20
10453;DHT22;5274;51.992;8.518;2022-09-09T08:04:18;17.90;62.30
10453;DHT22;5274;51.992;8.518;2022-09-09T08:06:53;18.00;43.90
10453;DHT22;5274;51.992;8.518;2022-09-09T08:09:19;18.00;33.30
10453;DHT22;5274;51.992;8.518;2022-09-09T08:11:45;18.00;45.40
10453;DHT22;5274;51.992;8.518;2022-09-09T08:14:12;18.00;29.00
10453;DHT22;5274;51.992;8.518;2022-09-09T08:16:42;18.00;40.60
10453;DHT22;5274;51.992;8.518;2022-09-09T08:19:08;18.00;20.60
10453;DHT22;5274;51.992;8.518;2022-09-09T08:21:36;18.00;32.30
10453;DHT22;5274;51.992;8.518;2022-09-09T08:24:03;18.10;23.00
10453;DHT22;5274;51.992;8.518;2022-09-09T08:26:31;18.10;49.50
10453;DHT22;5274;51.992;8.518;2022-09-09T08:28:58;18.10;17.80
10453;DHT22;5274;51.992;8.518;2022-09-09T08:31:27;18.30;19.10
10453;DHT22;5274;51.992;8.518;2022-09-09T08:33:57;18.50;5.60
10453;DHT22;5274;51.992;8.518;2022-09-09T08:36:26;18.70;1.00
10453;DHT22;5274;51.992;8.518;2022-09-09T08:38:55;18.80;1.00
10453;DHT22;5274;51.992;8.518;2022-09-09T08:44:29;19.10;1.00
10453;DHT22;5274;51.992;8.518;2022-09-09T08:47:06;19.10;1.00
10453;DHT22;5274;51.992;8.518;2022-09-09T08:52:30;19.10;1.00
10453;DHT22;5274;51.992;8.518;2022-09-09T08:55:15;19.00;1.00
10453;DHT22;5274;51.992;8.518;2022-09-09T08:57:45;19.00;1.00
10453;DHT22;5274;51.992;8.518;2022-09-09T09:00:11;19.10;1.00
10453;DHT22;5274;51.992;8.518;2022-09-09T09:03:06;19.10;1.00
10453;DHT22;5274;51.992;8.518;2022-09-09T09:08:25;19.30;1.00
10453;DHT22;5274;51.992;8.518;2022-09-09T09:10:54;19.40;1.00
10453;DHT22;5274;51.992;8.518;2022-09-09T09:16:27;19.20;1.00
10453;DHT22;5274;51.992;8.518;2022-09-09T09:18:57;19.20;1.00
10453;DHT22;5274;51.992;8.518;2022-09-09T09:21:43;19.00;1.00
10453;DHT22;5274;51.992;8.518;2022-09-09T09:26:43;19.10;1.00
10453;DHT22;5274;51.992;8.518;2022-09-09T09:29:12;19.10;1.00
10453;DHT22;5274;51.992;8.518;2022-09-09T09:31:38;18.90;1.00
10453;DHT22;5274;51.992;8.518;2022-09-09T09:34:03;18.90;1.00
10453;DHT22;5274;51.992;8.518;2022-09-09T09:36:40;18.80;1.00
10453;DHT22;5274;51.992;8.518;2022-09-09T09:39:06;18.70;1.00
10453;DHT22;5274;51.992;8.518;2022-09-09T09:41:34;18.70;1.00
10453;DHT22;5274;51.992;8.518;2022-09-09T09:44:02;18.80;1.00
10453;DHT22;5274;51.992;8.518;2022-09-09T09:46:28;18.90;1.00
10453;DHT22;5274;51.992;8.518;2022-09-09T09:49:02;18.80;1.00
10453;DHT22;5274;51.992;8.518;2022-09-09T09:51:30;18.70;1.00
10453;DHT22;5274;51.992;8.518;2022-09-09T09:54:26;18.90;1.00
10453;DHT22;5274;51.992;8.518;2022-09-09T09:56:53;19.00;1.00
10453;DHT22;5274;51.992;8.518;2022-09-09T10:01:54;19.50;1.00
10453;DHT22;5274;51.992;8.518;2022-09-09T10:04:21;19.70;1.00
10453;DHT22;5274;51.992;8.518;2022-09-09T10:06:49;19.70;1.00
10453;DHT22;5274;51.992;8.518;2022-09-09T10:09:26;19.70;1.00
10453;DHT22;5274;51.992;8.518;2022-09-09T10:22:29;19.70;1.00
10453;DHT22;5274;51.992;8.518;2022-09-09T10:25:26;19.90;1.00
10453;DHT22;5274;51.992;8.518;2022-09-09T10:33:48;20.40;1.00
10453;DHT22;5274;51.992;8.518;2022-09-09T10:36:24;20.30;1.00
10453;DHT22;5274;51.992;8.518;2022-09-09T10:38:59;20.60;1.00
10453;DHT22;5274;51.992;8.518;2022-09-09T10:41:54;20.80;1.00
10453;DHT22;5274;51.992;8.518;2022-09-09T10:55:39;20.80;99.90
10453;DHT22;5274;51.992;8.518;2022-09-09T10:58:09;20.60;99.90
10453;DHT22;5274;51.992;8.518;2022-09-09T11:00:40;20.30;99.90
10453;DHT22;5274;51.992;8.518;2022-09-09T11:03:25;20.20;1.00
10453;DHT22;5274;51.992;8.518;2022-09-09T11:05:55;20.50;1.00
10453;DHT22;5274;51.992;8.518;2022-09-09T11:08:25;20.80;1.00
10453;DHT22;5274;51.992;8.518;2022-09-09T11:13:34;21.00;99.90
10453;DHT22;5274;51.992;8.518;2022-09-09T11:16:19;21.20;99.90
10453;DHT22;5274;51.992;8.518;2022-09-09T11:18:47;21.60;99.90
10453;DHT22;5274;51.992;8.518;2022-09-09T11:21:28;21.80;99.90
10453;DHT22;5274;51.992;8.518;2022-09-09T11:24:27;21.40;99.90
10453;DHT22;5274;51.992;8.518;2022-09-09T11:26:58;21.00;99.90
10453;DHT22;5274;51.992;8.518;2022-09-09T11:35:38;25.10;99.90
10453;DHT22;5274;51.992;8.518;2022-09-09T11:38:13;27.50;99.90
10453;DHT22;5274;51.992;8.518;2022-09-09T11:40:41;25.90;99.90
10453;DHT22;5274;51.992;8.518;2022-09-09T11:43:25;24.80;99.90
10453;DHT22;5274;51.992;8.518;2022-09-09T11:45:54;23.60;99.90
10453;DHT22;5274;51.992;8.518;2022-09-09T11:51:13;22.40;99.90
10453;DHT22;5274;51.992;8.518;2022-09-09T11:53:50;22.00;99.90
10453;DHT22;5274;51.992;8.518;2022-09-09T11:56:27;22.40;99.90
10453;DHT22;5274;51.992;8.518;2022-09-09T11:59:06;22.80;99.90
10453;DHT22;5274;51.992;8.518;2022-09-09T12:01:43;24.90;99.90
10453;DHT22;5274;51.992;8.518;2022-09-09T12:09:33;32.00;99.90
10453;DHT22;5274;51.992;8.518;2022-09-09T12:15:28;36.90;99.90
10453;DHT22;5274;51.992;8.518;2022-09-09T12:17:31;39.30;99.90
10453;DHT22;5274;51.992;8.518;2022-09-09T12:20:26;42.10;84.20
10453;DHT22;5274;51.992;8.518;2022-09-09T12:28:51;40.50;39.00
10453;DHT22;5274;51.992;8.518;2022-09-09T12:31:27;37.70;41.30
10453;DHT22;5274;51.992;8.518;2022-09-09T12:34:13;41.10;43.70
10453;DHT22;5274;51.992;8.518;2022-09-09T12:36:41;43.50;35.80
10453;DHT22;5274;51.992;8.518;2022-09-09T12:39:21;42.10;29.70
10453;DHT22;5274;51.992;8.518;2022-09-09T12:41:54;42.10;31.00
10453;DHT22;5274;51.992;8.518;2022-09-09T12:44:22;39.40;34.00
10453;DHT22;5274;51.992;8.518;2022-09-09T12:46:48;39.70;35.70
10453;DHT22;5274;51.992;8.518;2022-09-09T12:49:38;40.30;34.70
10453;DHT22;5274;51.992;8.518;2022-09-09T12:52:08;38.70;36.40
10453;DHT22;5274;51.992;8.518;2022-09-09T12:54:36;39.60;33.20
10453;DHT22;5274;51.992;8.518;2022-09-09T12:57:02;37.70;41.70
10453;DHT22;5274;51.992;8.518;2022-09-09T12:59:40;36.80;46.20
10453;DHT22;5274;51.992;8.518;2022-09-09T13:02:23;38.00;41.80
10453;DHT22;5274;51.992;8.518;2022-09-09T13:04:50;40.10;41.50
10453;DHT22;5274;51.992;8.518;2022-09-09T13:07:17;39.50;33.40
10453;DHT22;5274;51.992;8.518;2022-09-09T13:09:44;37.40;41.40
10453;DHT22;5274;51.992;8.518;2022-09-09T13:12:14;34.20;52.30
10453;DHT22;5274;51.992;8.518;2022-09-09T13:14:44;31.80;66.80
10453;DHT22;5274;51.992;8.518;2022-09-09T13:17:19;30.90;73.90
10453;DHT22;5274;51.992;8.518;2022-09-09T13:19:46;29.70;83.70
10453;DHT22;5274;51.992;8.518;2022-09-09T13:22:29;30.40;86.00
10453;DHT22;5274;51.992;8.518;2022-09-09T13:25:00;30.50;86.40
10453;DHT22;5274;51.992;8.518;2022-09-09T13:29:54;29.40;91.60
10453;DHT22;5274;51.992;8.518;2022-09-09T13:32:21;28.80;94.30
10453;DHT22;5274;51.992;8.518;2022-09-09T13:34:58;29.60;95.50
10453;DHT22;5274;51.992;8.518;2022-09-09T13:37:36;33.10;74.90
10453;DHT22;5274;51.992;8.518;2022-09-09T13:40:04;35.10;61.00
10453;DHT22;5274;51.992;8.518;2022-09-09T13:42:34;37.10;57.70
10453;DHT22;5274;51.992;8.518;2022-09-09T13:45:04;38.10;44.80
10453;DHT22;5274;51.992;8.518;2022-09-09T13:47:34;38.50;43.70
10453;DHT22;5274;51.992;8.518;2022-09-09T13:52:45;39.10;36.00
10453;DHT22;5274;51.992;8.518;2022-09-09T13:55:12;37.80;35.60
10453;DHT22;5274;51.992;8.518;2022-09-09T13:57:38;37.30;35.40
10453;DHT22;5274;51.992;8.518;2022-09-09T14:00:04;34.10;45.90
10453;DHT22;5274;51.992;8.518;2022-09-09T14:02:31;35.10;47.10
10453;DHT22;5274;51.992;8.518;2022-09-09T14:04:56;37.00;44.90
10453;DHT22;5274;51.992;8.518;2022-09-09T14:07:22;35.60;42.10
10453;DHT22;5274;51.992;8.518;2022-09-09T14:09:47;35.40;48.00
10453;DHT22;5274;51.992;8.518;2022-09-09T14:12:16;35.50;45.50
10453;DHT22;5274;51.992;8.518;2022-09-09T14:14:42;36.50;41.80
10453;DHT22;5274;51.992;8.518;2022-09-09T14:17:08;35.50;43.10
10453;DHT22;5274;51.992;8.518;2022-09-09T14:19:34;33.50;53.20
10453;DHT22;5274;51.992;8.518;2022-09-09T14:21:59;32.40;63.70
10453;DHT22;5274;51.992;8.518;2022-09-09T14:24:26;30.90;61.30
10453;DHT22;5274;51.992;8.518;2022-09-09T14:26:52;30.30;71.60
10453;DHT22;5274;51.992;8.518;2022-09-09T14:29:18;30.30;78.60
10453;DHT22;5274;51.992;8.518;2022-09-09T14:31:43;30.20;78.90
10453;DHT22;5274;51.992;8.518;2022-09-09T14:34:09;29.90;77.90
10453;DHT22;5274;51.992;8.518;2022-09-09T14:36:39;29.70;85.40
10453;DHT22;5274;51.992;8.518;2022-09-09T14:39:05;30.00;83.30
10453;DHT22;5274;51.992;8.518;2022-09-09T14:41:31;28.50;88.70
10453;DHT22;5274;51.992;8.518;2022-09-09T14:43:56;28.60;91.70
10453;DHT22;5274;51.992;8.518;2022-09-09T14:46:22;28.80;91.70
10453;DHT22;5274;51.992;8.518;2022-09-09T14:48:48;28.70;92.50
10453;DHT22;5274;51.992;8.518;2022-09-09T14:51:15;28.70;90.10
10453;DHT22;5274;51.992;8.518;2022-09-09T14:53:42;27.40;93.40
10453;DHT22;5274;51.992;8.518;2022-09-09T14:56:15;26.70;97.60
10453;DHT22;5274;51.992;8.518;2022-09-09T14:58:40;26.40;99.90
10453;DHT22;5274;51.992;8.518;2022-09-09T15:01:11;26.30;99.90
10453;DHT22;5274;51.992;8.518;2022-09-09T15:03:38;26.00;99.90
10453;DHT22;5274;51.992;8.518;2022-09-09T15:06:09;25.20;99.90
10453;DHT22;5274;51.992;8.518;2022-09-09T15:08:36;24.90;99.90
10453;DHT22;5274;51.992;8.518;2022-09-09T15:11:03;25.10;99.90
10453;DHT22;5274;51.992;8.518;2022-09-09T15:13:29;25.80;99.90
10453;DHT22;5274;51.992;8.518;2022-09-09T15:15:55;26.50;99.90
10453;DHT22;5274;51.992;8.518;2022-09-09T15:18:21;25.80;99.90
10453;DHT22;5274;51.992;8.518;2022-09-09T15:20:47;25.30;99.90
10453;DHT22;5274;51.992;8.518;2022-09-09T15:23:13;25.50;99.90
10453;DHT22;5274;51.992;8.518;2022-09-09T15:25:50;25.20;99.90
10453;DHT22;5274;51.992;8.518;2022-09-09T15:28:16;25.50;99.90
10453;DHT22;5274;51.992;8.518;2022-09-09T15:30:41;25.00;99.90
10453;DHT22;5274;51.992;8.518;2022-09-09T15:33:08;24.30;99.90
10453;DHT22;5274;51.992;8.518;2022-09-09T15:35:33;24.10;99.90
10453;DHT22;5274;51.992;8.518;2022-09-09T15:38:02;24.00;99.90
10453;DHT22;5274;51.992;8.518;2022-09-09T15:40:28;24.30;99.90
10453;DHT22;5274;51.992;8.518;2022-09-09T15:42:53;24.20;99.90
10453;DHT22;5274;51.992;8.518;2022-09-09T15:45:19;23.60;99.90
10453;DHT22;5274;51.992;8.518;2022-09-09T15:47:47;23.10;99.90
10453;DHT22;5274;51.992;8.518;2022-09-09T15:50:12;22.90;99.90
10453;DHT22;5274;51.992;8.518;2022-09-09T15:52:38;22.70;99.90
10453;DHT22;5274;51.992;8.518;2022-09-09T15:55:04;22.50;99.90
10453;DHT22;5274;51.992;8.518;2022-09-09T15:57:29;22.30;99.90
10453;DHT22;5274;51.992;8.518;2022-09-09T15:59:55;22.30;99.90
10453;DHT22;5274;51.992;8.518;2022-09-09T16:02:20;22.00;99.90
10453;DHT22;5274;51.992;8.518;2022-09-09T16:04:46;21.90;99.90
10453;DHT22;5274;51.992;8.518;2022-09-09T16:07:12;21.80;99.90
10453;DHT22;5274;51.992;8.518;2022-09-09T16:09:37;21.80;99.90
10453;DHT22;5274;51.992;8.518;2022-09-09T16:12:04;21.80;99.90
10453;DHT22;5274;51.992;8.518;2022-09-09T16:14:34;22.00;99.90
10453;DHT22;5274;51.992;8.518;2022-09-09T16:17:04;22.20;99.90
10453;DHT22;5274;51.992;8.518;2022-09-09T16:19:30;22.10;99.90
10453;DHT22;5274;51.992;8.518;2022-09-09T16:21:56;22.30;99.90
10453;DHT22;5274;51.992;8.518;2022-09-09T16:24:22;23.00;99.90
10453;DHT22;5274;51.992;8.518;2022-09-09T16:26:51;23.60;99.90
10453;DHT22;5274;51.992;8.518;2022-09-09T16:29:18;23.60;99.90
10453;DHT22;5274;51.992;8.518;2022-09-09T16:31:45;23.50;99.90
10453;DHT22;5274;51.992;8.518;2022-09-09T16:34:12;23.10;99.90
10453;DHT22;5274;51.992;8.518;2022-09-09T16:36:39;23.10;99.90
10453;DHT22;5274;51.992;8.518;2022-09-09T16:39:07;23.10;99.90
10453;DHT22;5274;51.992;8.518;2022-09-09T16:41:34;23.10;99.90
10453;DHT22;5274;51.992;8.518;2022-09-09T16:44:03;22.80;99.90
10453;DHT22;5274;51.992;8.518;2022-09-09T16:46:31;22.50;99.90
10453;DHT22;5274;51.992;8.518;2022-09-09T16:48:58;22.40;99.90
10453;DHT22;5274;51.992;8.518;2022-09-09T16:51:27;22.30;99.90
10453;DHT22;5274;51.992;8.518;2022-09-09T16:53:53;22.10;99.90
10453;DHT22;5274;51.992;8.518;2022-09-09T16:56:21;22.00;99.90
10453;DHT22;5274;51.992;8.518;2022-09-09T16:58:52;21.90;99.90
10453;DHT22;5274;51.992;8.518;2022-09-09T17:01:19;21.70;99.90
10453;DHT22;5274;51.992;8.518;2022-09-09T17:03:44;21.70;99.90
10453;DHT22;5274;51.992;8.518;2022-09-09T17:06:12;21.40;99.90
10453;DHT22;5274;51.992;8.518;2022-09-09T17:08:38;21.20;99.90
10453;DHT22;5274;51.992;8.518;2022-09-09T17:11:18;20.80;1.00
10453;DHT22;5274;51.992;8.518;2022-09-09T17:13:45;19.50;99.90
10453;DHT22;5274;51.992;8.518;2022-09-09T17:16:12;19.00;99.90
10453;DHT22;5274;51.992;8.518;2022-09-09T17:18:38;18.50;99.90
10453;DHT22;5274;51.992;8.518;2022-09-09T17:21:05;18.30;99.90
10453;DHT22;5274;51.992;8.518;2022-09-09T17:23:32;18.20;99.90
10453;DHT22;5274;51.992;8.518;2022-09-09T17:25:58;18.20;99.90
10453;DHT22;5274;51.992;8.518;2022-09-09T17:28:25;18.20;99.90
10453;DHT22;5274;51.992;8.518;2022-09-09T17:30:59;18.20;99.90
10453;DHT22;5274;51.992;8.518;2022-09-09T17:33:27;18.20;99.90
10453;DHT22;5274;51.992;8.518;2022-09-09T17:36:05;18.20;99.90
10453;DHT22;5274;51.992;8.518;2022-09-09T17:38:32;18.20;99.90
10453;DHT22;5274;51.992;8.518;2022-09-09T17:41:07;18.10;99.00
10453;DHT22;5274;51.992;8.518;2022-09-09T17:43:33;17.90;1.00
10453;DHT22;5274;51.992;8.518;2022-09-09T17:46:10;17.70;1.00
10453;DHT22;5274;51.992;8.518;2022-09-09T17:48:37;17.70;1.00
10453;DHT22;5274;51.992;8.518;2022-09-09T17:51:07;17.70;1.00
10453;DHT22;5274;51.992;8.518;2022-09-09T17:53:39;17.60;1.00
10453;DHT22;5274;51.992;8.518;2022-09-09T17:56:06;17.50;1.00
10453;DHT22;5274;51.992;8.518;2022-09-09T17:58:32;17.40;1.00